Time;durP1;ratioP1;P1;durP2;ratioP2;P2;SDS_P1;SDS_P2;PMS_P1;PMS_P2;Temp;Humidity;BMP_temperature;BMP_pressure;BME280_temperature;BME280_humidity;BME280_pressure;Samples;Min_cycle;Max_cycle;Signal;HPM_P1;HPM_P2
2023/09/12 00:00:20;;;;;;;;;;;19.60;61.50;;;;;;5083324;28;20007;-69
2023/09/12 00:02:45;;;;;;;;;;;19.50;61.70;;;;;;5052277;28;20412;-69
2023/09/12 00:05:11;;;;;;;;;;;19.50;61.70;;;;;;5051378;28;20012;-69
2023/09/12 00:07:39;;;;;;;;;;;19.40;62.10;;;;;;5052160;28;19944;-69
2023/09/12 00:10:05;;;;;;;;;;;19.40;61.80;;;;;;5083760;28;19925;-69
2023/09/12 00:12:31;;;;;;;;;;;19.30;61.20;;;;;;5052271;28;19931;-69
2023/09/12 00:14:57;;;;;;;;;;;19.40;62.20;;;;;;5052282;28;20004;-69
2023/09/12 00:17:23;;;;;;;;;;;19.30;62.10;;;;;;5051752;28;19959;-69
2023/09/12 00:19:49;;;;;;;;;;;19.40;61.80;;;;;;5052033;28;20354;-69
2023/09/12 00:22:14;;;;;;;;;;;19.30;61.70;;;;;;5051125;28;19974;-69
2023/09/12 00:24:40;;;;;;;;;;;19.30;61.90;;;;;;5067682;28;20384;-69
2023/09/12 00:27:07;;;;;;;;;;;19.30;62.10;;;;;;5083757;28;19916;-69
2023/09/12 00:29:33;;;;;;;;;;;19.20;61.90;;;;;;5050558;28;20386;-69
2023/09/12 00:31:59;;;;;;;;;;;19.20;62.10;;;;;;5083119;28;20424;-69
2023/09/12 00:34:25;;;;;;;;;;;19.10;62.50;;;;;;5051922;28;19999;-69
2023/09/12 00:36:50;;;;;;;;;;;19.10;62.20;;;;;;5087626;28;20012;-69
2023/09/12 00:39:16;;;;;;;;;;;19.10;62.10;;;;;;5055807;28;20003;-69
2023/09/12 00:41:42;;;;;;;;;;;19.10;61.80;;;;;;5054730;28;20028;-69
2023/09/12 00:44:10;;;;;;;;;;;19.00;61.90;;;;;;5055387;28;20007;-69
2023/09/12 00:46:37;;;;;;;;;;;19.00;62.10;;;;;;5087713;28;19919;-69
2023/09/12 00:49:03;;;;;;;;;;;18.90;62.20;;;;;;5087891;28;19921;-69
2023/09/12 00:51:29;;;;;;;;;;;18.90;62.60;;;;;;5087105;28;19921;-69
2023/09/12 00:53:55;;;;;;;;;;;18.90;62.70;;;;;;5087862;28;19964;-69
2023/09/12 00:56:21;;;;;;;;;;;18.90;62.70;;;;;;5055039;28;19917;-69
2023/09/12 00:58:47;;;;;;;;;;;18.90;62.80;;;;;;5087688;28;19924;-69
2023/09/12 01:01:13;;;;;;;;;;;18.90;63.10;;;;;;5054398;28;19920;-69
2023/09/12 01:03:39;;;;;;;;;;;18.90;63.50;;;;;;5087580;28;19923;-69
2023/09/12 01:06:07;;;;;;;;;;;18.90;63.60;;;;;;5054915;28;20392;-69
2023/09/12 01:08:33;;;;;;;;;;;18.80;63.40;;;;;;5088057;28;20323;-69
2023/09/12 01:10:59;;;;;;;;;;;18.80;63.30;;;;;;5086160;28;20432;-69
2023/09/12 01:13:25;;;;;;;;;;;18.80;63.00;;;;;;5070468;28;19964;-69
2023/09/12 01:15:51;;;;;;;;;;;18.80;62.60;;;;;;5054976;28;19917;-69
2023/09/12 01:18:17;;;;;;;;;;;18.70;62.70;;;;;;5053782;28;19916;-69
2023/09/12 01:21:12;;;;;;;;;;;18.60;62.50;;;;;;5069444;28;20295;-69
2023/09/12 01:24:16;;;;;;;;;;;18.50;62.50;;;;;;5054916;28;19920;-69
2023/09/12 01:27:06;;;;;;;;;;;18.40;62.70;;;;;;5054501;28;19916;-69
2023/09/12 01:29:33;;;;;;;;;;;18.40;62.60;;;;;;5055097;28;19950;-69
2023/09/12 01:31:59;;;;;;;;;;;18.40;62.80;;;;;;5085949;28;19916;-69
2023/09/12 01:34:25;;;;;;;;;;;18.50;62.90;;;;;;5086969;28;19928;-69
2023/09/12 01:36:51;;;;;;;;;;;18.50;63.00;;;;;;5086691;28;19916;-69
2023/09/12 01:39:17;;;;;;;;;;;18.40;63.00;;;;;;5053119;28;19916;-69
2023/09/12 01:41:46;;;;;;;;;;;18.40;63.00;;;;;;5053538;28;19927;-69
2023/09/12 01:44:12;;;;;;;;;;;18.40;62.40;;;;;;5086580;28;19973;-69
2023/09/12 01:46:38;;;;;;;;;;;18.40;62.70;;;;;;5053199;28;19991;-69
2023/09/12 01:49:05;;;;;;;;;;;18.40;62.70;;;;;;5086603;28;19928;-69
2023/09/12 01:51:31;;;;;;;;;;;18.20;62.60;;;;;;5053544;28;19916;-69
2023/09/12 01:53:58;;;;;;;;;;;18.20;62.90;;;;;;5086623;28;19971;-69
2023/09/12 01:56:25;;;;;;;;;;;18.10;62.90;;;;;;5053987;28;19913;-69
2023/09/12 01:58:51;;;;;;;;;;;18.10;63.00;;;;;;5054342;28;19920;-69
2023/09/12 02:01:17;;;;;;;;;;;18.10;63.20;;;;;;5085685;28;19999;-69
2023/09/12 02:03:43;;;;;;;;;;;17.90;63.20;;;;;;5086519;28;19916;-69
2023/09/12 02:06:09;;;;;;;;;;;18.00;63.40;;;;;;5053993;28;20293;-69
2023/09/12 02:08:34;;;;;;;;;;;18.00;63.10;;;;;;5054085;28;19920;-69
2023/09/12 02:11:00;;;;;;;;;;;18.00;63.30;;;;;;5053305;28;20383;-69
2023/09/12 02:13:26;;;;;;;;;;;18.10;63.80;;;;;;5069376;28;20457;-69
2023/09/12 02:15:59;;;;;;;;;;;18.20;64.10;;;;;;5054035;28;20633;-69
2023/09/12 02:18:25;;;;;;;;;;;18.20;63.90;;;;;;5052641;28;19913;-69
2023/09/12 02:20:51;;;;;;;;;;;18.30;63.90;;;;;;5085153;28;19927;-69
2023/09/12 02:23:16;;;;;;;;;;;18.30;64.40;;;;;;5086202;28;20321;-69
2023/09/12 02:25:42;;;;;;;;;;;18.20;64.30;;;;;;5053928;28;19920;-69
2023/09/12 02:28:08;;;;;;;;;;;18.20;64.30;;;;;;5053991;28;19921;-69
2023/09/12 02:30:34;;;;;;;;;;;18.30;64.30;;;;;;5084980;28;20456;-69
2023/09/12 02:33:00;;;;;;;;;;;18.30;64.30;;;;;;5085937;28;19916;-69
2023/09/12 02:35:28;;;;;;;;;;;18.30;64.20;;;;;;5068502;28;19952;-69
2023/09/12 02:37:54;;;;;;;;;;;18.30;64.20;;;;;;5085959;28;19920;-69
2023/09/12 02:40:20;;;;;;;;;;;18.40;64.60;;;;;;5052476;28;19920;-69
2023/09/12 02:42:45;;;;;;;;;;;18.40;64.80;;;;;;5053519;28;20373;-69
2023/09/12 02:45:11;;;;;;;;;;;18.40;65.10;;;;;;5052786;28;20011;-69
2023/09/12 02:47:37;;;;;;;;;;;18.40;65.00;;;;;;5085907;28;20350;-69
2023/09/12 02:50:04;;;;;;;;;;;18.40;64.90;;;;;;5084991;28;20015;-69
2023/09/12 02:52:30;;;;;;;;;;;18.50;65.30;;;;;;5053136;28;19916;-69
2023/09/12 02:54:56;;;;;;;;;;;18.50;65.90;;;;;;5053538;28;19925;-69
2023/09/12 02:57:21;;;;;;;;;;;18.50;66.00;;;;;;5052888;28;19939;-69
2023/09/12 02:59:47;;;;;;;;;;;18.50;66.40;;;;;;5085254;28;19924;-69
2023/09/12 03:02:13;;;;;;;;;;;18.40;66.40;;;;;;5084420;28;19923;-69
2023/09/12 03:04:39;;;;;;;;;;;18.40;66.40;;;;;;5053170;28;19927;-69
2023/09/12 03:07:05;;;;;;;;;;;18.30;66.70;;;;;;5052766;28;19994;-69
2023/09/12 03:09:31;;;;;;;;;;;18.30;67.00;;;;;;5052975;28;20292;-69
2023/09/12 03:11:57;;;;;;;;;;;18.20;67.20;;;;;;5051938;28;19920;-69
2023/09/12 03:14:22;;;;;;;;;;;18.30;67.50;;;;;;5085222;28;19931;-69
2023/09/12 03:16:48;;;;;;;;;;;18.30;67.20;;;;;;5051266;28;20012;-69
2023/09/12 03:19:14;;;;;;;;;;;18.20;67.20;;;;;;5051327;28;20215;-69
2023/09/12 03:21:40;;;;;;;;;;;18.10;67.80;;;;;;5084203;28;20387;-69
2023/09/12 03:24:06;;;;;;;;;;;18.10;67.90;;;;;;5052589;28;20428;-69
2023/09/12 03:26:34;;;;;;;;;;;18.00;67.80;;;;;;5052332;28;20327;-69
2023/09/12 03:28:59;;;;;;;;;;;17.90;67.70;;;;;;5052602;28;19972;-69
2023/09/12 03:31:25;;;;;;;;;;;17.90;67.50;;;;;;5051670;28;20003;-69
2023/09/12 03:33:51;;;;;;;;;;;17.90;67.30;;;;;;5052533;28;20000;-69
2023/09/12 03:36:17;;;;;;;;;;;17.90;67.50;;;;;;5084464;28;20007;-69
2023/09/12 03:38:43;;;;;;;;;;;17.90;67.30;;;;;;5052382;28;19975;-69
2023/09/12 03:41:10;;;;;;;;;;;17.90;67.20;;;;;;5051500;28;20373;-69
2023/09/12 03:43:36;;;;;;;;;;;17.90;67.80;;;;;;5052439;28;19916;-69
2023/09/12 03:46:03;;;;;;;;;;;17.90;67.80;;;;;;5084056;28;19967;-69
2023/09/12 03:48:33;;;;;;;;;;;17.90;68.10;;;;;;5067617;28;19912;-69
2023/09/12 03:50:59;;;;;;;;;;;17.80;67.60;;;;;;5051430;28;19921;-69
2023/09/12 03:53:27;;;;;;;;;;;17.90;67.60;;;;;;5052295;28;19955;-69
2023/09/12 03:55:53;;;;;;;;;;;17.90;67.60;;;;;;5052207;28;19923;-69
2023/09/12 03:58:19;;;;;;;;;;;17.90;67.40;;;;;;5084394;28;19916;-69
2023/09/12 04:00:45;;;;;;;;;;;18.00;67.40;;;;;;5083476;28;19921;-69
2023/09/12 04:03:11;;;;;;;;;;;18.00;67.60;;;;;;5052141;28;19912;-69
2023/09/12 04:05:37;;;;;;;;;;;17.90;67.60;;;;;;5052108;28;20015;-69
2023/09/12 04:08:03;;;;;;;;;;;17.80;68.10;;;;;;5084512;28;19926;-69
2023/09/12 04:10:29;;;;;;;;;;;17.80;68.00;;;;;;5082725;28;20015;-69
2023/09/12 04:12:54;;;;;;;;;;;17.80;69.10;;;;;;5084358;28;20384;-69
2023/09/12 04:15:20;;;;;;;;;;;17.80;69.10;;;;;;5066731;28;19959;-69
2023/09/12 04:17:46;;;;;;;;;;;17.80;69.20;;;;;;5084519;28;20212;-69
2023/09/12 04:22:57;;;;;;;;;;;17.70;69.80;;;;;;5052010;28;19920;-69
2023/09/12 04:25:22;;;;;;;;;;;17.70;70.40;;;;;;5083531;28;20031;-69
2023/09/12 04:27:48;;;;;;;;;;;17.70;70.60;;;;;;5052083;28;19913;-69
2023/09/12 04:30:14;;;;;;;;;;;17.70;70.40;;;;;;5050697;28;19943;-69
2023/09/12 04:32:40;;;;;;;;;;;17.70;70.40;;;;;;5084223;28;19948;-69
2023/09/12 04:35:06;;;;;;;;;;;17.80;70.40;;;;;;5051520;28;19996;-69
2023/09/12 04:37:32;;;;;;;;;;;17.80;70.30;;;;;;5051755;28;19917;-69
2023/09/12 04:39:58;;;;;;;;;;;17.70;70.40;;;;;;5051500;28;20020;-69
2023/09/12 04:42:24;;;;;;;;;;;17.70;70.80;;;;;;5049474;28;19921;-69
2023/09/12 04:44:50;;;;;;;;;;;17.70;71.20;;;;;;5067090;28;19955;-69
2023/09/12 04:47:16;;;;;;;;;;;17.70;71.20;;;;;;5083785;28;19992;-69
2023/09/12 04:49:43;;;;;;;;;;;17.70;71.10;;;;;;5052194;28;20015;-69
2023/09/12 04:52:08;;;;;;;;;;;17.70;70.70;;;;;;5066429;28;20034;-69
2023/09/12 04:54:34;;;;;;;;;;;17.70;71.00;;;;;;5083929;28;19921;-69
2023/09/12 04:57:00;;;;;;;;;;;17.80;71.00;;;;;;5066640;28;19913;-69
2023/09/12 04:59:26;;;;;;;;;;;17.80;70.70;;;;;;5051600;28;19999;-69
2023/09/12 05:01:52;;;;;;;;;;;17.80;70.70;;;;;;5050727;28;19927;-69
2023/09/12 05:04:18;;;;;;;;;;;17.90;70.90;;;;;;5051588;28;19927;-69
2023/09/12 05:06:44;;;;;;;;;;;17.90;70.80;;;;;;5083730;28;20308;-69
2023/09/12 05:09:10;;;;;;;;;;;18.00;70.70;;;;;;5083850;28;20325;-69
2023/09/12 05:11:36;;;;;;;;;;;18.00;70.70;;;;;;5050720;28;19916;-69
2023/09/12 05:14:03;;;;;;;;;;;18.00;70.40;;;;;;5051497;28;19925;-69
2023/09/12 05:16:30;;;;;;;;;;;18.10;70.60;;;;;;5051225;28;20002;-69
2023/09/12 05:18:55;;;;;;;;;;;18.10;70.50;;;;;;5051637;28;19952;-69
2023/09/12 05:21:21;;;;;;;;;;;18.10;70.60;;;;;;5082750;28;20674;-69
2023/09/12 05:23:47;;;;;;;;;;;18.10;70.70;;;;;;5086998;28;20007;-69
2023/09/12 05:26:13;;;;;;;;;;;18.20;70.30;;;;;;5086744;28;19928;-69
2023/09/12 05:28:39;;;;;;;;;;;18.10;70.00;;;;;;5053631;28;20019;-69
2023/09/12 05:31:05;;;;;;;;;;;18.10;70.00;;;;;;5086138;28;20015;-68
2023/09/12 05:33:31;;;;;;;;;;;18.10;69.80;;;;;;5054902;28;20300;-69
2023/09/12 05:35:58;;;;;;;;;;;18.20;69.80;;;;;;5087028;28;19921;-69
2023/09/12 05:38:23;;;;;;;;;;;18.20;69.40;;;;;;5087027;28;20381;-69
2023/09/12 05:40:49;;;;;;;;;;;18.20;69.50;;;;;;5053997;28;20007;-69
2023/09/12 05:43:16;;;;;;;;;;;18.20;69.30;;;;;;5054630;28;19923;-69
2023/09/12 05:45:42;;;;;;;;;;;18.20;69.10;;;;;;5086483;28;20247;-69
2023/09/12 05:48:09;;;;;;;;;;;18.40;68.50;;;;;;5086936;28;19923;-69
2023/09/12 05:50:36;;;;;;;;;;;18.40;68.70;;;;;;5085550;28;20347;-69
2023/09/12 05:53:03;;;;;;;;;;;18.50;68.40;;;;;;5086805;28;19920;-68
2023/09/12 05:55:28;;;;;;;;;;;18.60;67.80;;;;;;5086382;28;19939;-69
2023/09/12 05:57:54;;;;;;;;;;;18.70;68.30;;;;;;5086915;28;19917;-69
2023/09/12 06:00:21;;;;;;;;;;;18.80;68.30;;;;;;5053344;28;20015;-69
2023/09/12 06:02:47;;;;;;;;;;;18.80;68.10;;;;;;5069754;28;20392;-69
2023/09/12 06:05:14;;;;;;;;;;;18.90;68.20;;;;;;5069214;28;20415;-69
2023/09/12 06:07:40;;;;;;;;;;;19.00;68.20;;;;;;5086536;28;19986;-69
2023/09/12 06:10:07;;;;;;;;;;;19.10;67.50;;;;;;5085707;28;19917;-69
2023/09/12 06:12:35;;;;;;;;;;;19.10;68.00;;;;;;5069127;28;19916;-69
2023/09/12 06:15:03;;;;;;;;;;;19.20;67.20;;;;;;5085849;28;19916;-68
2023/09/12 06:17:30;;;;;;;;;;;19.30;67.90;;;;;;5085978;28;19917;-69
2023/09/12 06:19:56;;;;;;;;;;;19.40;67.00;;;;;;5086178;28;19916;-69
2023/09/12 06:22:22;;;;;;;;;;;19.60;67.30;;;;;;5053005;28;19978;-69
2023/09/12 06:24:50;;;;;;;;;;;19.70;67.30;;;;;;5085910;28;19917;-69
2023/09/12 06:27:18;;;;;;;;;;;19.70;67.00;;;;;;5085809;28;20011;-69
2023/09/12 06:29:47;;;;;;;;;;;19.90;67.00;;;;;;5053874;28;19917;-69
2023/09/12 06:32:15;;;;;;;;;;;19.80;66.70;;;;;;5067786;28;19974;-69
2023/09/12 06:34:41;;;;;;;;;;;19.90;66.50;;;;;;5085472;28;19921;-69
2023/09/12 06:37:07;;;;;;;;;;;19.80;66.40;;;;;;5053193;28;19921;-69
2023/09/12 06:39:33;;;;;;;;;;;20.00;66.40;;;;;;5053391;28;19952;-69
2023/09/12 06:41:59;;;;;;;;;;;20.00;66.20;;;;;;5051356;28;20284;-69
2023/09/12 06:44:25;;;;;;;;;;;20.10;66.10;;;;;;5053209;28;20436;-69
2023/09/12 06:46:51;;;;;;;;;;;20.10;66.00;;;;;;5053157;28;19919;-69
2023/09/12 06:49:17;;;;;;;;;;;20.20;66.00;;;;;;5053419;28;20007;-69
2023/09/12 06:51:43;;;;;;;;;;;20.30;66.00;;;;;;5052666;28;19925;-69
2023/09/12 06:54:08;;;;;;;;;;;20.50;65.80;;;;;;5085599;28;19924;-69
2023/09/12 06:56:37;;;;;;;;;;;20.60;65.60;;;;;;5052927;28;19912;-69
2023/09/12 06:59:04;;;;;;;;;;;20.50;65.30;;;;;;5052954;28;19924;-69
2023/09/12 07:01:30;;;;;;;;;;;20.70;65.20;;;;;;5067666;28;19962;-69
2023/09/12 07:03:56;;;;;;;;;;;20.80;65.20;;;;;;5068325;28;20007;-69
2023/09/12 07:06:42;;;;;;;;;;;20.90;65.00;;;;;;5052757;28;20027;-69
2023/09/12 07:09:08;;;;;;;;;;;21.00;64.60;;;;;;5068305;28;19921;-69
2023/09/12 07:11:35;;;;;;;;;;;21.10;64.00;;;;;;5050542;28;19924;-69
2023/09/12 07:14:01;;;;;;;;;;;21.20;64.50;;;;;;5053070;28;19921;-69
2023/09/12 07:16:26;;;;;;;;;;;21.30;64.50;;;;;;5052506;28;20302;-69
2023/09/12 07:18:52;;;;;;;;;;;21.40;64.00;;;;;;5052599;28;20020;-69
2023/09/12 07:21:18;;;;;;;;;;;21.70;63.80;;;;;;5052055;28;20288;-69
2023/09/12 07:23:44;;;;;;;;;;;21.80;62.90;;;;;;5051423;28;19917;-69
2023/09/12 07:26:29;;;;;;;;;;;21.90;62.90;;;;;;5050962;28;19913;-69
2023/09/12 07:28:55;;;;;;;;;;;22.10;62.50;;;;;;5052586;28;20357;-69
2023/09/12 07:31:21;;;;;;;;;;;22.10;62.20;;;;;;5051738;28;20373;-69
2023/09/12 07:33:47;;;;;;;;;;;22.30;62.10;;;;;;5085113;28;19970;-69
2023/09/12 07:36:12;;;;;;;;;;;22.40;61.40;;;;;;5084217;28;19920;-69
2023/09/12 07:38:38;;;;;;;;;;;22.50;61.50;;;;;;5052554;28;19982;-69
2023/09/12 07:41:04;;;;;;;;;;;22.80;60.80;;;;;;5051338;28;20016;-69
2023/09/12 07:43:30;;;;;;;;;;;22.80;60.50;;;;;;5051178;28;20400;-69
2023/09/12 07:45:57;;;;;;;;;;;22.90;60.50;;;;;;5083605;28;19921;-69
2023/09/12 07:48:23;;;;;;;;;;;23.00;59.80;;;;;;5084491;28;19916;-69
2023/09/12 07:50:49;;;;;;;;;;;23.10;59.80;;;;;;5083691;28;20469;-69
2023/09/12 07:53:15;;;;;;;;;;;23.00;60.20;;;;;;5051029;28;19995;-69
2023/09/12 07:55:45;;;;;;;;;;;23.00;60.10;;;;;;5084260;28;20074;-69
2023/09/12 07:58:12;;;;;;;;;;;23.10;60.00;;;;;;5083282;28;20396;-69
2023/09/12 08:00:38;;;;;;;;;;;23.30;59.70;;;;;;5083485;28;19927;-69
2023/09/12 08:03:04;;;;;;;;;;;23.40;59.40;;;;;;5084678;28;20007;-69
2023/09/12 08:05:30;;;;;;;;;;;23.50;59.30;;;;;;5052244;28;19925;-69
2023/09/12 08:07:56;;;;;;;;;;;23.80;58.60;;;;;;5052284;28;20331;-69
2023/09/12 08:10:22;;;;;;;;;;;24.10;58.70;;;;;;5051523;28;19924;-69
2023/09/12 08:12:48;;;;;;;;;;;24.20;57.60;;;;;;5084539;28;19919;-69
2023/09/12 08:15:14;;;;;;;;;;;24.20;57.50;;;;;;5051768;28;20407;-69
2023/09/12 08:17:39;;;;;;;;;;;24.30;57.00;;;;;;5052139;28;20007;-69
2023/09/12 08:20:09;;;;;;;;;;;24.60;56.90;;;;;;5051417;28;20015;-70
2023/09/12 08:22:36;;;;;;;;;;;25.60;55.00;;;;;;5083975;28;19960;-69
2023/09/12 08:25:02;;;;;;;;;;;26.90;51.60;;;;;;5084337;28;19967;-69
2023/09/12 08:27:28;;;;;;;;;;;28.00;50.00;;;;;;5067630;28;19912;-69
2023/09/12 08:29:54;;;;;;;;;;;28.90;47.50;;;;;;5052188;28;20361;-69
2023/09/12 08:32:20;;;;;;;;;;;29.90;44.70;;;;;;5066370;28;19916;-71
2023/09/12 08:34:46;;;;;;;;;;;30.70;42.30;;;;;;5052241;28;20019;-71
2023/09/12 08:37:12;;;;;;;;;;;31.60;40.90;;;;;;5051563;28;19956;-71
2023/09/12 08:39:58;;;;;;;;;;;32.50;38.90;;;;;;5050483;28;19927;-71
2023/09/12 08:42:29;;;;;;;;;;;33.10;36.30;;;;;;5049577;28;19932;-71
2023/09/12 08:44:55;;;;;;;;;;;34.00;34.80;;;;;;5083306;28;19924;-71
2023/09/12 08:47:23;;;;;;;;;;;34.90;34.00;;;;;;5051481;28;19920;-71
2023/09/12 08:49:49;;;;;;;;;;;35.70;31.10;;;;;;5083731;28;19932;-72
2023/09/12 08:52:15;;;;;;;;;;;36.60;29.80;;;;;;5066110;28;19917;-71
2023/09/12 08:54:41;;;;;;;;;;;37.40;29.10;;;;;;5052009;28;19928;-71
2023/09/12 08:57:07;;;;;;;;;;;38.10;28.70;;;;;;5053612;28;20343;-71
2023/09/12 08:59:34;;;;;;;;;;;38.60;26.70;;;;;;5054130;28;20412;-71
2023/09/12 09:02:01;;;;;;;;;;;39.20;25.90;;;;;;5086897;28;19916;-71
2023/09/12 09:04:30;;;;;;;;;;;39.90;25.60;;;;;;5070613;28;20373;-71
2023/09/12 09:06:58;;;;;;;;;;;40.60;23.80;;;;;;5070238;28;19919;-71
2023/09/12 09:09:24;;;;;;;;;;;41.10;23.20;;;;;;5055445;28;19943;-70
2023/09/12 09:11:50;;;;;;;;;;;41.70;22.30;;;;;;5054248;28;19917;-71
2023/09/12 09:14:16;;;;;;;;;;;42.10;22.50;;;;;;5070521;28;19927;-70
2023/09/12 09:16:42;;;;;;;;;;;42.50;21.40;;;;;;5053475;28;20007;-72
2023/09/12 09:22:05;;;;;;;;;;;43.60;20.90;;;;;;5054192;28;19939;-71
2023/09/12 09:24:31;;;;;;;;;;;44.00;20.20;;;;;;5087098;28;19921;-71
2023/09/12 09:27:00;;;;;;;;;;;44.70;19.40;;;;;;5054616;28;20349;-71
2023/09/12 09:29:31;;;;;;;;;;;45.10;19.60;;;;;;5054821;28;19924;-71
2023/09/12 09:31:59;;;;;;;;;;;45.90;18.50;;;;;;5085142;28;19916;-70
2023/09/12 09:34:28;;;;;;;;;;;46.40;17.30;;;;;;5087412;28;20015;-71
2023/09/12 09:36:55;;;;;;;;;;;46.90;16.60;;;;;;5086361;28;19916;-72
2023/09/12 09:39:23;;;;;;;;;;;47.00;16.70;;;;;;5086948;28;19921;-70
2023/09/12 09:41:51;;;;;;;;;;;47.40;16.40;;;;;;5086084;28;19916;-71
2023/09/12 09:44:17;;;;;;;;;;;47.40;16.10;;;;;;5086842;28;19924;-72
2023/09/12 09:49:46;;;;;;;;;;;48.30;15.20;;;;;;5054675;28;20017;-71
2023/09/12 09:52:12;;;;;;;;;;;48.60;14.00;;;;;;5053698;28;19917;-71
2023/09/12 09:54:44;;;;;;;;;;;48.90;13.50;;;;;;5052269;28;20387;-71
2023/09/12 09:57:10;;;;;;;;;;;49.30;14.00;;;;;;5053652;28;20007;-71
2023/09/12 09:59:36;;;;;;;;;;;49.70;13.70;;;;;;5054288;28;20384;-71
2023/09/12 10:02:03;;;;;;;;;;;50.00;13.60;;;;;;5053270;28;19948;-72
2023/09/12 10:04:29;;;;;;;;;;;50.50;12.40;;;;;;5052958;28;20004;-71
2023/09/12 10:07:16;;;;;;;;;;;50.80;11.70;;;;;;5052667;28;20321;-71
2023/09/12 10:09:43;;;;;;;;;;;50.10;12.20;;;;;;5052837;28;19944;-71
2023/09/12 10:12:09;;;;;;;;;;;48.60;13.10;;;;;;5052068;28;20419;-71
2023/09/12 10:14:39;;;;;;;;;;;47.00;14.70;;;;;;5036294;28;19917;-71
2023/09/12 10:17:05;;;;;;;;;;;47.10;14.40;;;;;;5035924;28;20379;-71
2023/09/12 10:19:51;;;;;;;;;;;48.00;13.90;;;;;;5054162;28;20007;-71
2023/09/12 10:22:55;;;;;;;;;;;48.70;13.20;;;;;;5051986;28;20074;-71
2023/09/12 10:25:21;;;;;;;;;;;48.40;13.50;;;;;;5053655;28;19978;-71
2023/09/12 10:27:49;;;;;;;;;;;49.10;13.10;;;;;;5052773;28;19939;-71
2023/09/12 10:30:15;;;;;;;;;;;49.70;13.10;;;;;;5051533;28;20008;-71
2023/09/12 10:32:42;;;;;;;;;;;48.20;13.60;;;;;;5053805;28;19912;-71
2023/09/12 10:35:08;;;;;;;;;;;46.40;14.70;;;;;;5052243;28;19933;-71
2023/09/12 10:37:35;;;;;;;;;;;44.80;16.20;;;;;;5036006;28;19916;-71
2023/09/12 10:40:03;;;;;;;;;;;44.00;17.10;;;;;;5052404;28;19917;-71
2023/09/12 10:42:29;;;;;;;;;;;43.50;17.60;;;;;;5035206;28;20377;-71
2023/09/12 10:44:56;;;;;;;;;;;43.10;18.30;;;;;;5052300;28;19925;-71
2023/09/12 10:47:22;;;;;;;;;;;43.50;17.90;;;;;;5051729;28;19963;-71
2023/09/12 10:49:48;;;;;;;;;;;43.10;18.20;;;;;;5052170;28;20321;-71
2023/09/12 10:52:35;;;;;;;;;;;42.10;19.10;;;;;;5031342;28;19924;-71
2023/09/12 10:55:04;;;;;;;;;;;41.70;19.10;;;;;;5033665;28;19925;-71
2023/09/12 10:57:30;;;;;;;;;;;41.90;18.90;;;;;;5033228;28;20274;-71
2023/09/12 11:00:15;;;;;;;;;;;41.70;19.20;;;;;;5031921;28;19967;-71
2023/09/12 11:02:41;;;;;;;;;;;41.00;19.90;;;;;;5033158;28;19928;-71
2023/09/12 11:05:45;;;;;;;;;;;40.40;20.00;;;;;;5033310;28;19921;-71
2023/09/12 11:08:10;;;;;;;;;;;39.90;20.60;;;;;;5032022;28;19920;-71
2023/09/12 11:10:36;;;;;;;;;;;39.70;21.20;;;;;;5030908;28;19921;-71
2023/09/12 11:13:03;;;;;;;;;;;39.90;20.90;;;;;;5033100;28;19913;-71
2023/09/12 11:15:31;;;;;;;;;;;40.20;21.40;;;;;;5031560;28;19944;-71
2023/09/12 11:18:16;;;;;;;;;;;39.80;20.80;;;;;;5032015;28;20439;-71
2023/09/12 11:23:54;;;;;;;;;;;39.30;21.10;;;;;;5032778;28;19913;-71
2023/09/12 11:26:20;;;;;;;;;;;39.80;20.70;;;;;;5031294;28;20004;-71
2023/09/12 11:28:46;;;;;;;;;;;40.10;20.70;;;;;;5031531;28;19939;-71
2023/09/12 11:31:11;;;;;;;;;;;40.30;20.60;;;;;;5030485;28;19917;-71
2023/09/12 11:33:40;;;;;;;;;;;41.40;20.10;;;;;;5032581;28;19935;-71
2023/09/12 11:36:08;;;;;;;;;;;44.00;18.40;;;;;;5032286;28;19913;-71
2023/09/12 11:38:34;;;;;;;;;;;46.30;16.90;;;;;;5031513;28;19928;-71
2023/09/12 11:41:00;;;;;;;;;;;47.50;14.70;;;;;;5030316;28;20007;-71
2023/09/12 11:43:27;;;;;;;;;;;47.90;14.10;;;;;;5031298;28;19923;-71
2023/09/12 11:45:55;;;;;;;;;;;47.20;14.40;;;;;;5031020;28;19960;-71
2023/09/12 11:48:21;;;;;;;;;;;45.40;15.60;;;;;;5032507;28;19917;-71
2023/09/12 11:51:07;;;;;;;;;;;44.90;16.20;;;;;;5030255;28;19920;-71
2023/09/12 11:53:35;;;;;;;;;;;45.20;15.90;;;;;;5031282;28;19924;-71
2023/09/12 11:56:01;;;;;;;;;;;46.50;15.00;;;;;;5030650;28;20008;-71
2023/09/12 11:58:27;;;;;;;;;;;45.40;15.40;;;;;;5031269;28;19917;-72
2023/09/12 12:00:55;;;;;;;;;;;44.80;15.30;;;;;;5030048;28;19975;-71
2023/09/12 12:03:22;;;;;;;;;;;44.20;16.50;;;;;;5031197;28;19963;-71
2023/09/12 12:05:48;;;;;;;;;;;44.50;16.40;;;;;;5030864;28;19917;-71
2023/09/12 12:08:16;;;;;;;;;;;45.60;15.30;;;;;;5031234;28;19928;-71
2023/09/12 12:10:42;;;;;;;;;;;44.90;15.60;;;;;;5030178;28;19925;-71
2023/09/12 12:13:30;;;;;;;;;;;44.80;15.80;;;;;;5030986;28;20375;-71
2023/09/12 12:15:56;;;;;;;;;;;45.90;14.50;;;;;;5032170;28;19952;-71
2023/09/12 12:18:22;;;;;;;;;;;46.00;15.40;;;;;;5032189;28;19936;-71
2023/09/12 12:20:48;;;;;;;;;;;45.40;15.20;;;;;;5031244;28;20008;-71
2023/09/12 12:23:14;;;;;;;;;;;45.40;14.80;;;;;;5031017;28;19917;-71
2023/09/12 12:25:40;;;;;;;;;;;45.30;14.20;;;;;;5032062;28;19917;-71
2023/09/12 12:28:05;;;;;;;;;;;45.60;13.90;;;;;;5032139;28;19964;-71
2023/09/12 12:30:33;;;;;;;;;;;46.50;13.90;;;;;;5031244;28;20013;-71
2023/09/12 12:33:01;;;;;;;;;;;47.00;13.70;;;;;;5035090;28;20051;-71
2023/09/12 12:35:28;;;;;;;;;;;47.50;13.20;;;;;;5034305;28;20309;-71
2023/09/12 12:37:58;;;;;;;;;;;47.70;12.80;;;;;;5034743;28;19928;-71
2023/09/12 12:40:25;;;;;;;;;;;48.30;12.80;;;;;;5033849;28;20024;-71
2023/09/12 12:42:51;;;;;;;;;;;48.40;11.80;;;;;;5018125;28;19924;-71
2023/09/12 12:45:21;;;;;;;;;;;48.40;12.00;;;;;;5033970;28;19925;-71
2023/09/12 12:47:51;;;;;;;;;;;48.50;11.90;;;;;;5035919;28;19970;-71
2023/09/12 12:53:02;;;;;;;;;;;49.30;11.50;;;;;;5034803;28;20377;-71
2023/09/12 12:55:27;;;;;;;;;;;49.20;11.90;;;;;;5034046;28;19917;-71
2023/09/12 12:57:53;;;;;;;;;;;49.10;11.80;;;;;;5034485;28;19947;-71
2023/09/12 13:00:20;;;;;;;;;;;49.50;12.00;;;;;;5033340;28;19921;-71
2023/09/12 13:02:46;;;;;;;;;;;49.70;11.80;;;;;;5034489;28;20375;-71
2023/09/12 13:05:31;;;;;;;;;;;49.40;11.30;;;;;;5035260;28;19952;-70
2023/09/12 13:07:57;;;;;;;;;;;48.50;11.80;;;;;;5034191;28;19917;-71
2023/09/12 13:10:23;;;;;;;;;;;48.10;12.30;;;;;;5034578;28;20008;-71
2023/09/12 13:12:50;;;;;;;;;;;48.30;12.20;;;;;;5017530;28;20336;-71
2023/09/12 13:15:17;;;;;;;;;;;48.70;11.90;;;;;;5033725;28;19913;-71
2023/09/12 13:17:43;;;;;;;;;;;49.20;11.50;;;;;;5034361;28;20370;-70
2023/09/12 13:20:10;;;;;;;;;;;49.40;11.40;;;;;;5032962;28;19913;-72
2023/09/12 13:22:37;;;;;;;;;;;49.90;11.20;;;;;;5033998;28;19917;-70
2023/09/12 13:25:03;;;;;;;;;;;50.40;10.70;;;;;;5017332;28;19917;-72
2023/09/12 13:27:29;;;;;;;;;;;50.70;10.20;;;;;;5033648;28;19940;-71
2023/09/12 13:29:55;;;;;;;;;;;50.80;10.40;;;;;;5033884;28;20448;-71
2023/09/12 13:32:21;;;;;;;;;;;50.10;10.80;;;;;;5048773;28;19925;-71
2023/09/12 13:34:47;;;;;;;;;;;49.90;11.10;;;;;;5033819;28;20328;-70
2023/09/12 13:37:16;;;;;;;;;;;50.00;11.40;;;;;;5033236;28;19917;-70
2023/09/12 13:39:48;;;;;;;;;;;49.90;10.60;;;;;;5034733;28;19923;-71
2023/09/12 13:42:18;;;;;;;;;;;50.30;11.00;;;;;;5029844;28;19929;-71
2023/09/12 13:44:44;;;;;;;;;;;50.30;10.30;;;;;;5032896;28;20017;-71
2023/09/12 13:47:10;;;;;;;;;;;49.30;11.40;;;;;;5031355;28;20378;-70
2023/09/12 13:49:36;;;;;;;;;;;48.20;12.20;;;;;;5014192;28;19975;-71
2023/09/12 13:52:02;;;;;;;;;;;47.20;12.70;;;;;;5013790;28;19926;-71
2023/09/12 13:54:28;;;;;;;;;;;46.60;13.00;;;;;;5013565;28;19918;-71
2023/09/12 13:56:54;;;;;;;;;;;46.20;13.60;;;;;;5014509;28;20371;-70
2023/09/12 13:59:20;;;;;;;;;;;46.30;14.10;;;;;;4998046;28;20457;-70
2023/09/12 14:01:46;;;;;;;;;;;47.00;13.90;;;;;;5033634;28;19924;-70
2023/09/12 14:04:13;;;;;;;;;;;46.90;13.10;;;;;;5033114;28;19960;-71
2023/09/12 14:06:39;;;;;;;;;;;46.90;13.10;;;;;;5026324;28;19929;-71
2023/09/12 14:09:05;;;;;;;;;;;47.00;13.30;;;;;;5018648;28;20020;-71
2023/09/12 14:11:31;;;;;;;;;;;47.10;13.50;;;;;;5011037;28;19923;-71
2023/09/12 14:13:57;;;;;;;;;;;47.60;13.60;;;;;;5012789;28;19926;-71
2023/09/12 14:16:23;;;;;;;;;;;48.10;13.10;;;;;;5008655;28;19920;-71
2023/09/12 14:18:49;;;;;;;;;;;49.40;12.40;;;;;;5023537;28;19923;-71
2023/09/12 14:21:14;;;;;;;;;;;50.00;12.00;;;;;;5032386;28;19921;-71
2023/09/12 14:23:40;;;;;;;;;;;50.60;11.40;;;;;;5027653;28;20012;-71
2023/09/12 14:26:06;;;;;;;;;;;51.10;11.10;;;;;;5047031;28;20297;-71
2023/09/12 14:28:34;;;;;;;;;;;50.80;11.20;;;;;;5047730;28;20297;-71
2023/09/12 14:31:00;;;;;;;;;;;50.90;11.10;;;;;;5047940;28;19932;-71